Time;durP1;ratioP1;P1;durP2;ratioP2;P2;SDS_P1;SDS_P2;PMS_P1;PMS_P2;Temp;Humidity;BMP_temperature;BMP_pressure;BME280_temperature;BME280_humidity;BME280_pressure;Samples;Min_cycle;Max_cycle;Signal;HPM_P1;HPM_P2
2021/06/23 00:00:53;;;;;;;9.43;3.25;;;;;;;20.35;53.71;97651.94;5092674;28;20048;-73
2021/06/23 00:03:19;;;;;;;9.45;3.10;;;;;;;20.47;53.36;97654.56;5092636;28;20802;-73
2021/06/23 00:05:44;;;;;;;6.35;1.58;;;;;;;20.53;54.21;97661.44;5091296;28;20488;-74
2021/06/23 00:08:10;;;;;;;9.98;3.17;;;;;;;20.57;54.17;97664.28;5092837;28;20035;-73
2021/06/23 00:10:35;;;;;;;11.15;2.88;;;;;;;20.68;55.54;97659.72;5091460;28;20089;-73
2021/06/23 00:13:04;;;;;;;11.10;2.75;;;;;;;20.59;53.46;97662.72;5092684;28;20472;-74
2021/06/23 00:15:31;;;;;;;8.40;2.83;;;;;;;20.48;54.27;97663.72;5091325;28;20024;-73
2021/06/23 00:17:56;;;;;;;8.07;2.90;;;;;;;20.45;53.89;97668.03;5092625;28;20032;-73
2021/06/23 00:20:22;;;;;;;9.18;3.17;;;;;;;20.51;53.78;97671.31;5092458;28;20047;-75
2021/06/23 00:22:47;;;;;;;9.68;2.97;;;;;;;20.52;54.52;97672.91;5090926;28;20054;-74
2021/06/23 00:25:14;;;;;;;9.10;3.40;;;;;;;20.44;56.50;97680.31;5092466;28;20028;-73
2021/06/23 00:27:39;;;;;;;12.90;4.10;;;;;;;20.34;59.13;97680.06;5092923;28;20012;-73
2021/06/23 00:30:06;;;;;;;11.05;3.95;;;;;;;20.17;60.85;97670.19;5092407;28;20400;-73
2021/06/23 00:32:35;;;;;;;11.52;5.68;;;;;;;20.14;61.50;97668.94;5090616;28;20051;-74
2021/06/23 00:35:04;;;;;;;12.90;3.92;;;;;;;20.06;62.22;97666.38;5090513;28;20050;-75
2021/06/23 00:37:29;;;;;;;9.95;3.53;;;;;;;20.08;63.85;97672.38;5092488;28;20032;-73
2021/06/23 00:39:54;;;;;;;18.23;4.13;;;;;;;19.84;64.88;97672.63;5090931;28;20429;-74
2021/06/23 00:42:20;;;;;;;12.35;3.95;;;;;;;19.97;64.57;97671.34;5092048;28;21630;-74
2021/06/23 00:44:46;;;;;;;9.05;3.53;;;;;;;19.98;65.41;97675.72;5091940;28;20040;-74
2021/06/23 00:47:11;;;;;;;14.52;4.43;;;;;;;19.87;64.45;97671.91;5092154;28;20062;-74
2021/06/23 00:49:37;;;;;;;13.48;4.00;;;;;;;19.85;64.90;97677.81;5092125;28;20020;-74
2021/06/23 00:52:04;;;;;;;11.73;4.07;;;;;;;19.97;66.06;97677.69;5090925;28;20020;-75
2021/06/23 00:54:29;;;;;;;15.15;4.68;;;;;;;20.17;63.44;97687.63;5091953;28;20027;-74
2021/06/23 00:56:58;;;;;;;10.48;4.30;;;;;;;20.06;63.74;97678.28;5092568;28;20039;-75
2021/06/23 00:59:25;;;;;;;17.33;4.25;;;;;;;20.03;64.17;97683.75;5095986;28;20071;-74
2021/06/23 01:01:51;;;;;;;9.30;3.78;;;;;;;20.16;65.97;97677.72;5094891;28;20051;-74
2021/06/23 01:04:18;;;;;;;14.68;4.60;;;;;;;20.11;64.32;97686.31;5092779;28;20027;-75
2021/06/23 01:06:44;;;;;;;16.63;4.63;;;;;;;19.99;65.73;97675.34;5090892;28;20020;-76
2021/06/23 01:09:13;;;;;;;13.27;4.43;;;;;;;19.87;64.59;97677.44;5092506;28;20499;-74
2021/06/23 01:12:35;;;;;;;14.38;4.50;;;;;;;19.70;64.49;97684.22;5091468;28;20032;-75
2021/06/23 01:15:01;;;;;;;17.42;4.18;;;;;;;19.77;63.38;97676.03;5086250;28;20046;-76
2021/06/23 01:17:29;;;;;;;10.82;4.15;;;;;;;19.80;64.11;97674.53;5091370;28;20059;-74
2021/06/23 01:20:09;;;;;;;10.23;2.85;;;;;;;19.80;63.74;97677.31;5091519;28;20020;-74
2021/06/23 01:22:36;;;;;;;12.20;2.83;;;;;;;19.70;61.88;97687.00;5091357;28;20032;-74
2021/06/23 01:25:03;;;;;;;6.75;2.38;;;;;;;19.68;63.22;97683.75;5091319;28;20027;-74
2021/06/23 01:27:28;;;;;;;9.95;3.17;;;;;;;19.65;62.40;97681.72;5090197;28;20028;-74
2021/06/23 01:29:53;;;;;;;11.73;4.22;;;;;;;19.73;63.66;97683.50;5091352;28;20477;-75
2021/06/23 01:32:19;;;;;;;9.60;3.67;;;;;;;19.71;62.34;97685.81;5090066;28;20026;-75
2021/06/23 01:34:45;;;;;;;8.20;3.70;;;;;;;19.59;62.77;97681.19;5090026;28;20031;-74
2021/06/23 01:37:10;;;;;;;9.60;3.45;;;;;;;19.57;62.63;97677.97;5089997;28;20195;-74
2021/06/23 01:39:36;;;;;;;11.38;3.63;;;;;;;19.71;62.68;97678.31;5090955;28;20085;-74
2021/06/23 01:42:01;;;;;;;8.68;3.58;;;;;;;19.52;62.09;97680.22;5089762;28;20450;-75
2021/06/23 01:44:28;;;;;;;7.32;2.70;;;;;;;19.43;62.54;97682.38;5089765;28;20380;-74
2021/06/23 01:46:54;;;;;;;6.47;2.22;;;;;;;19.34;63.12;97679.75;5089791;28;20052;-76
2021/06/23 01:49:25;;;;;;;6.88;2.35;;;;;;;19.28;63.50;97681.19;5090834;28;20115;-74
2021/06/23 01:51:51;;;;;;;13.45;3.75;;;;;;;19.13;63.88;97674.50;5091130;28;20066;-75
2021/06/23 01:54:17;;;;;;;11.63;3.72;;;;;;;18.98;64.36;97674.50;5090912;28;20700;-74
2021/06/23 01:56:42;;;;;;;14.45;3.55;;;;;;;18.97;64.62;97679.22;5091389;28;20028;-74
2021/06/23 01:59:08;;;;;;;7.30;2.90;;;;;;;18.97;64.88;97676.47;5089542;28;20020;-75
2021/06/23 02:02:03;;;;;;;10.93;3.67;;;;;;;18.91;65.24;97677.06;5089847;28;20169;-78
2021/06/23 02:04:41;;;;;;;7.32;3.13;;;;;;;19.12;65.68;97689.53;5090704;28;20370;-79
2021/06/23 02:07:19;;;;;;;9.85;3.42;;;;;;;18.92;66.02;97679.47;5084909;28;20032;-79
2021/06/23 02:09:56;;;;;;;11.00;3.92;;;;;;;18.87;66.13;97671.44;5069273;28;20013;-78
2021/06/23 02:12:24;;;;;;;7.18;3.15;;;;;;;18.82;67.17;97684.75;5078082;28;20489;-77
2021/06/23 02:14:51;;;;;;;10.55;3.58;;;;;;;18.71;66.77;97670.59;5089256;28;20392;-83
2021/06/23 02:17:17;;;;;;;7.53;3.58;;;;;;;18.93;67.05;97675.56;5089430;28;20035;-80
2021/06/23 02:19:51;;;;;;;10.73;3.28;;;;;;;18.90;67.14;97673.50;5093010;28;20094;-80
2021/06/23 02:22:21;;;;;;;12.52;3.72;;;;;;;18.79;67.70;97680.75;5093143;28;20039;-78
2021/06/23 02:24:48;;;;;;;9.77;3.70;;;;;;;18.74;67.75;97678.22;5083369;28;20036;-81
2021/06/23 02:27:14;;;;;;;7.28;3.17;;;;;;;18.86;69.94;97674.59;5074427;28;20146;-80
2021/06/23 02:29:41;;;;;;;9.98;2.95;;;;;;;18.71;67.91;97678.91;5074412;28;20046;-80
2021/06/23 02:32:12;;;;;;;15.38;3.55;;;;;;;18.67;67.83;97678.00;5074243;28;20473;-80
2021/06/23 02:34:40;;;;;;;9.82;3.42;;;;;;;18.69;68.35;97692.34;5074097;28;20038;-79
2021/06/23 02:37:08;;;;;;;10.77;3.45;;;;;;;18.77;69.06;97691.34;5072837;28;20024;-79
2021/06/23 02:39:33;;;;;;;15.25;3.58;;;;;;;18.77;68.22;97693.31;5072975;28;20079;-80
2021/06/23 02:41:59;;;;;;;7.88;3.50;;;;;;;18.75;68.04;97687.34;5073789;28;20060;-80
2021/06/23 02:44:25;;;;;;;7.10;3.78;;;;;;;18.63;68.25;97683.47;5074054;28;20551;-78
2021/06/23 02:46:50;;;;;;;9.98;2.88;;;;;;;18.70;67.99;97688.41;5072730;28;20052;-79
2021/06/23 02:49:18;;;;;;;13.82;3.80;;;;;;;18.87;67.51;97701.94;5072622;28;20024;-79
2021/06/23 02:51:45;;;;;;;12.95;3.30;;;;;;;18.77;68.07;97704.41;5072339;28;20028;-79
2021/06/23 02:54:11;;;;;;;8.38;3.55;;;;;;;18.71;68.05;97698.31;5073835;28;20092;-80
2021/06/23 02:56:37;;;;;;;8.82;3.47;;;;;;;18.62;68.31;97714.31;5074101;28;20540;-78
2021/06/23 02:59:03;;;;;;;18.08;3.83;;;;;;;18.57;68.62;97714.56;5073731;28;20036;-80
2021/06/23 03:01:30;;;;;;;13.35;5.38;;;;;;;18.67;68.32;97714.03;5084652;28;20063;-82
2021/06/23 03:03:55;;;;;;;12.00;3.10;;;;;;;18.60;69.12;97728.53;5093787;28;20028;-80
2021/06/23 03:06:22;;;;;;;19.58;7.60;;;;;;;18.70;69.04;97724.44;5093865;28;20499;-79
2021/06/23 03:08:47;;;;;;;10.93;6.95;;;;;;;18.59;69.67;97735.22;5093920;28;20035;-79
2021/06/23 03:11:13;;;;;;;13.13;4.38;;;;;;;18.51;69.69;97727.06;5092241;28;20020;-79
2021/06/23 03:13:38;;;;;;;17.83;5.43;;;;;;;18.51;69.86;97743.69;5093747;28;20028;-79
2021/06/23 03:16:04;;;;;;;19.50;3.83;;;;;;;18.51;69.94;97740.91;5094271;28;20032;-80
2021/06/23 03:18:33;;;;;;;20.33;4.97;;;;;;;18.57;70.12;97748.63;5094769;28;20476;-79
2021/06/23 03:21:04;;;;;;;27.48;16.10;;;;;;;18.89;68.82;97752.25;5101196;28;20069;-80
2021/06/23 03:23:30;;;;;;;12.07;5.75;;;;;;;18.93;68.58;97758.72;5095713;28;20028;-79
2021/06/23 03:25:56;;;;;;;10.30;5.00;;;;;;;18.97;69.88;97754.09;5092072;28;20027;-79
2021/06/23 03:28:21;;;;;;;12.40;5.32;;;;;;;18.89;68.56;97752.25;5093727;28;20069;-77
2021/06/23 03:30:47;;;;;;;9.98;3.63;;;;;;;18.95;68.21;97756.38;5091734;28;20693;-81
2021/06/23 03:33:12;;;;;;;9.88;3.90;;;;;;;18.85;68.59;97750.56;5093064;28;20370;-78
2021/06/23 03:35:38;;;;;;;14.05;4.80;;;;;;;18.77;69.04;97766.19;5092226;28;20101;-78
2021/06/23 03:38:03;;;;;;;9.52;3.63;;;;;;;18.79;69.29;97765.84;5091802;28;20020;-78
2021/06/23 03:40:29;;;;;;;10.88;4.13;;;;;;;18.81;68.77;97772.66;5093016;28;20584;-78
2021/06/23 03:42:55;;;;;;;14.18;4.57;;;;;;;18.95;68.69;97775.78;5091715;28;20126;-79
2021/06/23 03:45:20;;;;;;;14.02;3.58;;;;;;;19.13;67.59;97770.75;5093194;28;20032;-79
2021/06/23 03:47:46;;;;;;;9.63;3.53;;;;;;;19.25;67.25;97782.59;5092250;28;20062;-80
2021/06/23 03:50:13;;;;;;;6.00;3.72;;;;;;;19.48;66.62;97779.22;5092996;28;20028;-79
2021/06/23 03:52:38;;;;;;;12.70;4.57;;;;;;;19.87;65.92;97781.00;5092887;28;20051;-81
2021/06/23 03:55:08;;;;;;;12.85;4.20;;;;;;;20.17;64.52;97779.31;5091756;28;20537;-80
2021/06/23 03:57:34;;;;;;;11.68;5.07;;;;;;;20.42;65.40;97787.44;5091579;28;20047;-80
2021/06/23 03:59:59;;;;;;;18.10;7.10;;;;;;;20.71;63.45;97792.44;5092732;28;20028;-81
2021/06/23 04:02:25;;;;;;;10.18;4.68;;;;;;;21.01;62.69;97793.47;5073248;28;20044;-79
2021/06/23 04:04:50;;;;;;;11.68;4.13;;;;;;;21.05;60.80;97791.53;5071618;28;20029;-80
2021/06/23 04:07:16;;;;;;;13.07;4.15;;;;;;;21.22;60.56;97779.16;5071571;28;20044;-80
2021/06/23 04:09:42;;;;;;;6.72;3.92;;;;;;;21.34;59.85;97785.38;5071279;28;20098;-81
2021/06/23 04:12:09;;;;;;;11.77;4.40;;;;;;;21.46;60.55;97792.72;5086763;28;20036;-78
2021/06/23 04:14:35;;;;;;;12.20;3.25;;;;;;;21.73;59.53;97807.53;5082708;28;20100;-77
2021/06/23 04:17:01;;;;;;;9.27;3.80;;;;;;;21.79;58.91;97800.47;5104025;28;20463;-78
2021/06/23 04:19:27;;;;;;;10.25;2.97;;;;;;;21.82;57.79;97791.38;5090444;28;20032;-78
2021/06/23 04:21:52;;;;;;;8.48;3.80;;;;;;;21.77;59.49;97803.63;5072336;28;20115;-78
2021/06/23 04:24:17;;;;;;;13.15;5.38;;;;;;;21.84;57.31;97812.09;5070412;28;20025;-77
2021/06/23 04:26:44;;;;;;;10.93;4.13;;;;;;;21.63;57.56;97806.16;5071013;28;20055;-79
2021/06/23 04:29:10;;;;;;;12.43;4.05;;;;;;;21.81;57.57;97807.28;5070678;28;20024;-80
2021/06/23 04:31:35;;;;;;;9.25;4.13;;;;;;;21.41;58.43;97806.16;5073634;28;20037;-80
2021/06/23 04:34:01;;;;;;;13.85;3.67;;;;;;;21.19;59.91;97808.53;5090737;28;20350;-78
2021/06/23 04:36:27;;;;;;;9.63;4.07;;;;;;;21.48;59.14;97803.50;5088344;28;20024;-81
2021/06/23 04:38:52;;;;;;;18.63;5.72;;;;;;;21.60;59.48;97806.09;5089415;28;20502;-79
2021/06/23 04:41:17;;;;;;;14.35;5.57;;;;;;;21.53;60.19;97803.19;5078294;28;20419;-80
2021/06/23 04:43:43;;;;;;;13.00;4.50;;;;;;;21.38;59.41;97806.91;5096269;28;20035;-72
2021/06/23 04:46:08;;;;;;;21.52;5.18;;;;;;;21.31;58.55;97802.81;5071721;28;20048;-74
2021/06/23 04:48:34;;;;;;;14.38;6.50;;;;;;;21.31;60.48;97804.78;5088254;28;20439;-73
2021/06/23 04:51:00;;;;;;;16.83;4.45;;;;;;;21.18;60.87;97801.34;5090188;28;20114;-72
2021/06/23 04:53:26;;;;;;;15.85;5.38;;;;;;;21.46;58.11;97803.09;5089998;28;20400;-73
2021/06/23 04:55:54;;;;;;;8.57;4.30;;;;;;;21.43;58.05;97806.56;5090172;28;20019;-73
2021/06/23 04:58:21;;;;;;;10.88;4.35;;;;;;;21.73;58.92;97810.31;5090194;28;20020;-73
2021/06/23 05:00:46;;;;;;;13.27;4.65;;;;;;;21.65;58.98;97803.81;5090216;28;20075;-73
2021/06/23 05:03:12;;;;;;;16.48;4.63;;;;;;;21.50;58.33;97796.38;5090646;28;20079;-74
2021/06/23 05:05:39;;;;;;;12.27;4.47;;;;;;;21.55;58.64;97798.06;5090195;28;20028;-73
2021/06/23 05:08:05;;;;;;;11.85;4.55;;;;;;;21.81;57.51;97798.91;5089065;28;20093;-74
2021/06/23 05:10:31;;;;;;;11.07;4.88;;;;;;;21.98;56.51;97800.44;5090112;28;20144;-73
2021/06/23 05:12:57;;;;;;;13.65;4.55;;;;;;;21.91;57.32;97803.09;5088636;28;20092;-73
2021/06/23 05:15:23;;;;;;;10.98;3.60;;;;;;;22.07;56.84;97794.59;5087972;28;20028;-72
2021/06/23 05:17:49;;;;;;;16.55;5.00;;;;;;;22.26;56.28;97800.88;5088810;28;20035;-73
2021/06/23 05:20:14;;;;;;;14.13;5.15;;;;;;;22.06;57.55;97796.56;5089021;28;20034;-74
2021/06/23 05:22:40;;;;;;;9.15;4.90;;;;;;;22.20;58.05;97802.38;5087491;28;20058;-72
2021/06/23 05:25:09;;;;;;;14.10;4.95;;;;;;;22.32;56.95;97804.94;5087673;28;20032;-73
2021/06/23 05:27:34;;;;;;;15.90;4.45;;;;;;;22.50;57.73;97807.97;5088820;28;20016;-73
2021/06/23 05:30:04;;;;;;;20.52;5.20;;;;;;;22.37;56.48;97801.81;5088407;28;20031;-72
2021/06/23 05:32:29;;;;;;;13.90;4.75;;;;;;;22.22;57.01;97819.50;5088387;28;20020;-72
2021/06/23 05:34:54;;;;;;;18.13;5.18;;;;;;;22.49;56.79;97819.50;5088493;28;20024;-74
2021/06/23 05:37:20;;;;;;;12.68;4.50;;;;;;;22.55;55.50;97809.63;5088293;28;20031;-72
2021/06/23 05:39:45;;;;;;;15.50;4.22;;;;;;;22.31;56.65;97820.03;5088122;28;20107;-73
2021/06/23 05:42:14;;;;;;;15.02;5.47;;;;;;;22.52;55.33;97818.75;5099727;28;20020;-72
2021/06/23 05:44:40;;;;;;;10.23;4.80;;;;;;;23.13;53.94;97813.59;5091439;28;20035;-72
2021/06/23 05:47:05;;;;;;;15.77;5.00;;;;;;;23.17;55.08;97819.22;5089752;28;20384;-73
2021/06/23 05:49:30;;;;;;;13.05;4.57;;;;;;;23.36;53.08;97825.44;5089299;28;20476;-70
2021/06/23 05:51:56;;;;;;;15.15;4.30;;;;;;;23.35;53.04;97829.41;5087884;28;20044;-70
2021/06/23 05:54:21;;;;;;;13.00;4.50;;;;;;;23.37;53.04;97817.84;5088717;28;20093;-72
2021/06/23 05:56:47;;;;;;;9.40;4.55;;;;;;;23.38;53.87;97830.63;5078462;28;20032;-70
2021/06/23 05:59:12;;;;;;;15.75;5.88;;;;;;;23.58;52.90;97828.47;5088745;28;20024;-71
2021/06/23 06:01:38;;;;;;;11.02;4.65;;;;;;;23.53;52.71;97826.81;5088986;28;20047;-70
2021/06/23 06:04:04;;;;;;;13.63;5.45;;;;;;;23.35;54.27;97825.81;5068239;28;20064;-70
2021/06/23 06:06:30;;;;;;;15.38;7.63;;;;;;;23.70;52.87;97823.41;5067274;28;20047;-70
2021/06/23 06:08:55;;;;;;;14.82;5.13;;;;;;;23.87;52.86;97821.97;5069714;28;20024;-70
2021/06/23 06:11:21;;;;;;;14.43;5.05;;;;;;;24.10;53.17;97824.53;5069070;28;20103;-70
2021/06/23 06:13:46;;;;;;;15.20;5.15;;;;;;;24.30;51.11;97829.53;5069593;28;20042;-70
2021/06/23 06:16:12;;;;;;;16.25;5.88;;;;;;;24.45;51.58;97830.44;5070569;28;20017;-70
2021/06/23 06:18:38;;;;;;;13.93;5.90;;;;;;;24.58;51.79;97836.50;5069876;28;20032;-70
2021/06/23 06:21:03;;;;;;;15.25;6.95;;;;;;;24.88;51.52;97831.50;5070252;28;20024;-71
2021/06/23 06:23:29;;;;;;;20.05;6.68;;;;;;;24.67;51.72;97834.16;5068732;28;20031;-71
2021/06/23 06:25:56;;;;;;;17.95;5.18;;;;;;;24.58;51.73;97831.72;5071582;28;20024;-71
2021/06/23 06:28:21;;;;;;;10.43;4.25;;;;;;;24.39;51.65;97843.19;5070999;28;20096;-73
2021/06/23 06:30:47;;;;;;;18.67;5.38;;;;;;;24.11;53.03;97838.16;5070326;28;20103;-71
2021/06/23 06:33:13;;;;;;;13.73;5.15;;;;;;;24.53;50.44;97849.66;5070873;28;20028;-70
2021/06/23 06:35:39;;;;;;;12.77;4.55;;;;;;;24.79;51.01;97856.22;5070199;28;20028;-71
2021/06/23 06:38:04;;;;;;;17.13;4.55;;;;;;;25.00;49.32;97853.53;5070619;28;20033;-71
2021/06/23 06:40:30;;;;;;;9.20;3.30;;;;;;;25.06;48.73;97854.00;5070270;28;20054;-70
2021/06/23 06:42:55;;;;;;;13.07;4.85;;;;;;;24.72;49.45;97861.75;5070345;28;20068;-73
2021/06/23 06:45:22;;;;;;;20.15;4.70;;;;;;;24.54;48.96;97861.66;5070100;28;20124;-70
2021/06/23 06:47:48;;;;;;;11.13;3.58;;;;;;;24.15;51.20;97855.75;5070453;28;20032;-71
2021/06/23 06:50:13;;;;;;;11.07;3.35;;;;;;;24.12;50.21;97867.72;5070028;28;20389;-71
2021/06/23 06:52:39;;;;;;;10.13;3.63;;;;;;;24.34;50.37;97863.13;5069777;28;20036;-70
2021/06/23 06:55:08;;;;;;;8.63;4.18;;;;;;;24.80;48.25;97874.63;5065065;28;20044;-71
2021/06/23 06:57:33;;;;;;;11.07;4.35;;;;;;;24.83;48.75;97866.28;5048907;28;20021;-70
2021/06/23 06:59:59;;;;;;;11.73;4.88;;;;;;;24.81;49.36;97868.66;5050360;28;20393;-73
2021/06/23 07:02:24;;;;;;;7.97;3.42;;;;;;;25.21;48.10;97873.25;5049716;28;20064;-70
2021/06/23 07:04:50;;;;;;;19.02;5.72;;;;;;;25.42;47.26;97867.75;5050527;28;20209;-72
2021/06/23 07:07:16;;;;;;;14.95;4.28;;;;;;;25.37;47.72;97882.09;5053963;28;20027;-71
2021/06/23 07:09:41;;;;;;;20.85;4.68;;;;;;;25.37;47.93;97884.91;5053663;28;20025;-72
2021/06/23 07:12:07;;;;;;;15.50;5.60;;;;;;;25.77;47.22;97885.88;5052424;28;20032;-71
2021/06/23 07:14:33;;;;;;;11.48;4.97;;;;;;;25.92;46.24;97887.50;5053603;28;20016;-71
2021/06/23 07:16:59;;;;;;;11.82;4.32;;;;;;;25.95;46.29;97883.91;5054055;28;20021;-71
2021/06/23 07:19:24;;;;;;;15.73;4.78;;;;;;;26.18;45.48;97889.16;5052985;28;20052;-71
2021/06/23 07:21:50;;;;;;;14.35;3.92;;;;;;;26.91;44.59;97895.97;5051970;28;20021;-71
2021/06/23 07:24:17;;;;;;;19.42;5.60;;;;;;;26.67;44.04;97894.75;5053804;28;20037;-71
2021/06/23 07:26:45;;;;;;;14.57;4.32;;;;;;;26.87;44.12;97903.59;5063762;28;20115;-71
2021/06/23 07:29:11;;;;;;;11.05;4.22;;;;;;;27.15;43.58;97906.34;5071842;28;20120;-71
2021/06/23 07:36:37;;;;;;;19.15;4.20;;;;;;;27.42;42.94;97912.25;5073446;28;20068;-70
2021/06/23 07:39:08;;;;;;;11.68;4.00;;;;;;;27.47;44.19;97914.69;5073177;28;20031;-71
2021/06/23 07:41:33;;;;;;;14.95;3.85;;;;;;;27.91;43.36;97919.69;5072000;28;20071;-70
2021/06/23 07:43:59;;;;;;;15.32;3.97;;;;;;;28.38;41.96;97918.97;5071784;28;20093;-71
2021/06/23 07:46:25;;;;;;;13.25;3.15;;;;;;;28.40;42.04;97912.94;5073026;28;20409;-71
2021/06/23 07:48:53;;;;;;;19.05;4.53;;;;;;;28.00;44.08;97906.75;5060687;28;20083;-72
2021/06/23 07:51:26;;;;;;;10.75;4.22;;;;;;;28.28;42.37;97911.41;5069476;28;20025;-70
2021/06/23 07:56:51;;;;;;;12.00;3.97;;;;;;;28.64;41.61;97923.19;5073135;28;20028;-71
2021/06/23 08:10:24;;;;;;;17.02;5.18;;;;;;;31.36;36.69;97924.28;5072031;28;20055;-71
2021/06/23 08:12:54;;;;;;;;;;;;;;;32.31;35.15;97920.22;5072411;28;20121;-70
2021/06/23 08:15:20;;;;;;;13.38;3.83;;;;;;;31.57;35.39;97904.88;5072155;28;19912;-71
2021/06/23 08:17:45;;;;;;;11.35;4.00;;;;;;;31.86;34.97;97907.09;5072110;28;20493;-71
2021/06/23 08:20:11;;;;;;;10.50;3.53;;;;;;;33.35;33.43;97905.00;5072215;28;20028;-71
2021/06/23 08:22:37;;;;;;;8.65;3.53;;;;;;;33.28;33.80;97902.38;5072154;28;20032;-72
2021/06/23 08:25:03;;;;;;;19.35;3.85;;;;;;;33.86;32.19;97901.06;5053814;28;20488;-72
2021/06/23 08:27:28;;;;;;;16.30;3.38;;;;;;;32.94;33.79;97902.06;5064404;28;20025;-72
2021/06/23 08:29:54;;;;;;;9.70;3.08;;;;;;;32.44;34.59;97896.84;5066389;28;20071;-72
2021/06/23 08:32:19;;;;;;;14.73;4.57;;;;;;;31.54;35.84;97891.59;5059111;28;20108;-72
2021/06/23 08:34:44;;;;;;;11.88;4.20;;;;;;;30.47;37.52;97889.13;5060121;28;20078;-72
2021/06/23 08:37:10;;;;;;;19.13;4.22;;;;;;;30.34;38.16;97893.75;5066051;28;20563;-72
2021/06/23 08:39:35;;;;;;;27.73;5.60;;;;;;;30.66;37.69;97891.22;5067587;28;20425;-72
2021/06/23 08:42:01;;;;;;;15.68;5.20;;;;;;;31.16;36.75;97899.63;5060559;28;20107;-72
2021/06/23 08:44:26;;;;;;;15.57;3.58;;;;;;;30.76;37.20;97901.53;5058598;28;20036;-72
2021/06/23 08:46:52;;;;;;;13.45;4.03;;;;;;;30.67;37.45;97904.09;5060910;28;20019;-71
2021/06/23 08:49:18;;;;;;;18.30;4.20;;;;;;;30.74;37.21;97901.16;5059748;28;20487;-70
2021/06/23 08:51:44;;;;;;;14.13;3.55;;;;;;;30.94;37.27;97886.28;5059739;28;20052;-71
2021/06/23 08:54:10;;;;;;;21.20;3.83;;;;;;;31.12;37.12;97893.22;5061270;28;20483;-71
2021/06/23 08:56:37;;;;;;;17.58;4.50;;;;;;;31.56;35.90;97888.31;5059207;28;20025;-71
2021/06/23 08:59:04;;;;;;;11.73;3.78;;;;;;;32.03;35.38;97889.72;5058679;28;20013;-71
2021/06/23 09:01:33;;;;;;;15.68;4.53;;;;;;;32.31;34.96;97889.06;5060419;28;20079;-71
2021/06/23 09:04:02;;;;;;;16.50;4.22;;;;;;;32.40;34.46;97890.47;5059378;28;20021;-72
2021/06/23 09:06:51;;;;;;;9.73;3.75;;;;;;;31.97;35.22;97885.81;5058638;28;20028;-71
2021/06/23 09:09:20;;;;;;;10.45;3.08;;;;;;;32.01;35.33;97885.72;5053466;28;20028;-71
2021/06/23 09:11:46;;;;;;;12.60;3.90;;;;;;;32.13;35.28;97882.22;5052779;28;20049;-71
2021/06/23 09:14:13;;;;;;;14.20;3.67;;;;;;;31.96;35.20;97880.56;5049402;28;20166;-71
2021/06/23 09:17:07;;;;;;;14.82;3.88;;;;;;;31.65;36.18;97880.84;5056446;28;20114;-71
2021/06/23 09:19:35;;;;;;;15.18;3.83;;;;;;;31.93;35.54;97872.94;5061002;28;20377;-71
2021/06/23 09:22:01;;;;;;;12.13;3.97;;;;;;;31.40;36.14;97872.06;5061131;28;20044;-71
2021/06/23 09:24:53;;;;;;;13.30;4.47;;;;;;;31.33;36.28;97885.56;5058499;28;20112;-70
2021/06/23 09:27:21;;;;;;;15.15;3.92;;;;;;;30.95;36.98;97870.97;5056361;28;20112;-71
2021/06/23 09:29:47;;;;;;;16.40;5.65;;;;;;;31.43;36.39;97879.66;5058746;28;20025;-74
2021/06/23 09:32:13;;;;;;;18.15;4.47;;;;;;;31.76;35.76;97872.91;5059288;28;20077;-72
2021/06/23 09:34:45;;;;;;;20.15;4.18;;;;;;;31.79;35.54;97874.09;5060264;28;20103;-71
2021/06/23 09:37:27;;;;;;;14.55;3.40;;;;;;;31.61;37.16;97863.13;5060002;28;20055;-71
2021/06/23 09:40:11;;;;;;;9.13;3.40;;;;;;;31.69;36.86;97867.44;5049334;28;20029;-72
2021/06/23 09:42:54;;;;;;;10.05;3.88;;;;;;;31.59;36.04;97857.13;5058005;28;20021;-73
2021/06/23 09:45:20;;;;;;;17.75;4.30;;;;;;;31.54;36.51;97849.19;5058180;28;20028;-74
2021/06/23 09:47:47;;;;;;;17.15;3.80;;;;;;;31.27;36.89;97851.31;5059773;28;20174;-72
2021/06/23 09:50:21;;;;;;;16.63;3.67;;;;;;;30.98;37.45;97853.91;5058835;28;20083;-72
2021/06/23 09:52:58;;;;;;;13.32;3.90;;;;;;;31.43;36.97;97842.91;5058970;28;20472;-70
2021/06/23 09:55:41;;;;;;;20.42;5.13;;;;;;;31.91;36.04;97847.13;5060943;28;20068;-71
2021/06/23 09:58:33;;;;;;;11.27;3.67;;;;;;;31.72;35.78;97843.13;5058447;28;20039;-71
2021/06/23 10:01:12;;;;;;;14.98;4.78;;;;;;;31.83;36.37;97830.31;5055800;28;20532;-71
2021/06/23 10:03:52;;;;;;;20.20;4.85;;;;;;;31.31;37.04;97826.59;5059625;28;20428;-71
2021/06/23 10:06:25;;;;;;;17.70;4.18;;;;;;;31.64;36.67;97827.53;5057533;28;20020;-70
2021/06/23 10:08:52;;;;;;;20.58;4.35;;;;;;;31.55;37.01;97811.13;5058775;28;20477;-71
2021/06/23 10:11:28;;;;;;;22.92;4.78;;;;;;;31.62;36.05;97821.50;5060188;28;20554;-71
2021/06/23 10:13:53;;;;;;;31.65;4.97;;;;;;;32.01;35.71;97824.25;5058998;28;20040;-71
2021/06/23 10:16:21;;;;;;;11.77;4.03;;;;;;;32.11;35.89;97825.25;5058015;28;20028;-71
2021/06/23 10:18:47;;;;;;;11.63;4.55;;;;;;;32.35;35.25;97826.66;5058629;28;20667;-72
2021/06/23 10:21:15;;;;;;;19.05;5.18;;;;;;;31.67;36.36;97816.13;5058916;28;20016;-72
2021/06/23 10:23:45;;;;;;;19.40;4.68;;;;;;;31.80;36.57;97824.72;5060228;28;20047;-72
2021/06/23 10:26:11;;;;;;;15.32;4.07;;;;;;;31.96;36.17;97815.44;5058812;28;20044;-72
2021/06/23 10:28:37;;;;;;;17.85;4.50;;;;;;;31.86;35.81;97813.69;5058486;28;20453;-72
2021/06/23 10:31:04;;;;;;;15.80;4.85;;;;;;;32.09;35.70;97810.72;5041419;28;20131;-72
2021/06/23 10:33:37;;;;;;;18.75;5.30;;;;;;;31.97;35.71;97817.06;5058148;28;20568;-71
2021/06/23 10:36:02;;;;;;;23.45;5.25;;;;;;;32.60;34.95;97815.50;5057561;28;20031;-72
2021/06/23 10:38:29;;;;;;;15.60;4.30;;;;;;;32.84;34.18;97807.56;5057482;28;20100;-72
2021/06/23 10:40:57;;;;;;;16.55;4.05;;;;;;;33.17;33.56;97814.75;5057124;28;20021;-73
2021/06/23 10:43:23;;;;;;;16.20;3.60;;;;;;;32.65;34.36;97800.78;5057206;28;20108;-73
2021/06/23 10:45:48;;;;;;;13.77;4.05;;;;;;;33.10;34.09;97808.47;5055569;28;20131;-71
2021/06/23 10:48:14;;;;;;;14.43;4.15;;;;;;;33.30;33.80;97812.72;5057194;28;20024;-70
2021/06/23 10:50:40;;;;;;;15.48;3.75;;;;;;;33.42;33.27;97808.34;5056299;28;20076;-70
2021/06/23 10:53:34;;;;;;;12.93;4.05;;;;;;;32.67;34.19;97798.28;5055999;28;20044;-71
2021/06/23 10:56:05;;;;;;;20.50;4.63;;;;;;;32.56;34.81;97800.63;5060606;28;20050;-73
2021/06/23 10:58:36;;;;;;;19.70;4.55;;;;;;;33.23;34.26;97800.81;5064333;28;20032;-71
2021/06/23 11:01:09;;;;;;;13.02;4.15;;;;;;;32.73;34.11;97801.41;5061523;28;20036;-71
2021/06/23 11:04:01;;;;;;;23.00;3.78;;;;;;;32.40;34.84;97799.81;5062192;28;20051;-71
2021/06/23 11:06:41;;;;;;;16.67;4.03;;;;;;;32.40;34.65;97794.94;5059921;28;20381;-71
2021/06/23 11:09:28;;;;;;;13.48;4.68;;;;;;;32.45;34.95;97788.75;5067364;28;20020;-71
2021/06/23 11:11:55;;;;;;;14.02;4.60;;;;;;;32.32;34.71;97782.22;5067794;28;20031;-71
2021/06/23 11:14:21;;;;;;;10.18;3.83;;;;;;;32.22;35.07;97794.63;5057496;28;20028;-70
2021/06/23 11:16:50;;;;;;;23.60;4.97;;;;;;;31.74;35.79;97793.31;5060156;28;20017;-71
2021/06/23 11:19:17;;;;;;;21.95;5.63;;;;;;;32.48;35.28;97789.91;5060584;28;20362;-72
2021/06/23 11:21:46;;;;;;;20.90;5.63;;;;;;;32.72;34.40;97789.25;5062679;28;20026;-71
2021/06/23 11:24:17;;;;;;;18.23;4.30;;;;;;;33.15;33.34;97793.75;5061691;28;20370;-71
2021/06/23 11:26:48;;;;;;;19.40;5.70;;;;;;;33.36;33.20;97787.47;5061956;28;20017;-70
2021/06/23 11:29:21;;;;;;;22.33;5.22;;;;;;;33.28;33.09;97792.53;5060731;28;20029;-70
2021/06/23 11:32:24;;;;;;;17.83;4.30;;;;;;;32.85;34.23;97787.28;5059509;28;20013;-71
2021/06/23 11:34:53;;;;;;;13.82;3.92;;;;;;;32.86;34.05;97782.41;5055343;28;20025;-71
2021/06/23 11:37:21;;;;;;;14.13;4.22;;;;;;;32.26;34.61;97790.47;5053034;28;20033;-71
2021/06/23 11:39:47;;;;;;;10.55;4.65;;;;;;;32.07;35.09;97774.38;5052702;28;20024;-71
2021/06/23 11:42:14;;;;;;;16.42;3.75;;;;;;;32.01;35.11;97778.16;5067156;28;20036;-71
2021/06/23 11:44:40;;;;;;;16.83;3.55;;;;;;;32.71;34.34;97776.31;5072668;28;20021;-71
2021/06/23 11:47:07;;;;;;;14.43;3.35;;;;;;;33.47;33.11;97782.25;5072663;28;20079;-72
2021/06/23 11:49:34;;;;;;;19.65;4.18;;;;;;;33.82;32.71;97781.16;5073316;28;20051;-71